sensor_id;sensor_type;location;lat;lon;timestamp;temperature;humidity
15343;DHT22;7771;48.478;8.936;2023-03-01T00:01:24;0.20;99.90
15343;DHT22;7771;48.478;8.936;2023-03-01T00:03:49;0.20;99.90
15343;DHT22;7771;48.478;8.936;2023-03-01T00:06:16;0.20;99.90
15343;DHT22;7771;48.478;8.936;2023-03-01T00:08:42;0.10;99.90
15343;DHT22;7771;48.478;8.936;2023-03-01T00:11:12;0.10;99.90
15343;DHT22;7771;48.478;8.936;2023-03-01T00:13:37;0.10;99.90
15343;DHT22;7771;48.478;8.936;2023-03-01T00:16:11;0.10;99.90
15343;DHT22;7771;48.478;8.936;2023-03-01T00:18:31;0.10;99.90
15343;DHT22;7771;48.478;8.936;2023-03-01T00:20:58;0.00;99.90
15343;DHT22;7771;48.478;8.936;2023-03-01T00:23:25;0.00;99.90
15343;DHT22;7771;48.478;8.936;2023-03-01T00:25:53;0.00;99.90
15343;DHT22;7771;48.478;8.936;2023-03-01T00:28:20;-0.10;99.90
15343;DHT22;7771;48.478;8.936;2023-03-01T00:30:48;-0.10;99.90
15343;DHT22;7771;48.478;8.936;2023-03-01T00:35:43;-0.10;99.90
15343;DHT22;7771;48.478;8.936;2023-03-01T00:38:10;-0.10;99.90
15343;DHT22;7771;48.478;8.936;2023-03-01T00:40:37;-0.20;99.90
15343;DHT22;7771;48.478;8.936;2023-03-01T00:43:04;-0.20;99.90
15343;DHT22;7771;48.478;8.936;2023-03-01T00:45:32;-0.20;99.90
15343;DHT22;7771;48.478;8.936;2023-03-01T00:47:59;-0.20;99.90
15343;DHT22;7771;48.478;8.936;2023-03-01T00:50:26;-0.20;99.90
15343;DHT22;7771;48.478;8.936;2023-03-01T00:52:53;-0.30;99.90
15343;DHT22;7771;48.478;8.936;2023-03-01T00:55:19;-0.30;99.90
15343;DHT22;7771;48.478;8.936;2023-03-01T00:57:46;-0.30;99.90
15343;DHT22;7771;48.478;8.936;2023-03-01T01:00:14;-0.40;99.90
15343;DHT22;7771;48.478;8.936;2023-03-01T01:02:41;-0.40;99.90
15343;DHT22;7771;48.478;8.936;2023-03-01T01:05:08;-0.40;99.90
15343;DHT22;7771;48.478;8.936;2023-03-01T01:07:34;-0.40;99.90
15343;DHT22;7771;48.478;8.936;2023-03-01T01:10:01;-0.40;99.90
15343;DHT22;7771;48.478;8.936;2023-03-01T01:12:28;-0.40;99.90
15343;DHT22;7771;48.478;8.936;2023-03-01T01:17:22;-0.50;99.90
15343;DHT22;7771;48.478;8.936;2023-03-01T01:19:50;-0.50;99.90
15343;DHT22;7771;48.478;8.936;2023-03-01T01:22:16;-0.50;99.90
15343;DHT22;7771;48.478;8.936;2023-03-01T01:24:43;-0.50;99.90
15343;DHT22;7771;48.478;8.936;2023-03-01T01:27:09;-0.50;99.90
15343;DHT22;7771;48.478;8.936;2023-03-01T01:29:37;-0.50;99.90
15343;DHT22;7771;48.478;8.936;2023-03-01T01:32:04;-0.50;99.90
15343;DHT22;7771;48.478;8.936;2023-03-01T01:34:32;-0.60;99.90
15343;DHT22;7771;48.478;8.936;2023-03-01T01:36:59;-0.60;99.90
15343;DHT22;7771;48.478;8.936;2023-03-01T01:39:26;-0.60;99.90
15343;DHT22;7771;48.478;8.936;2023-03-01T01:41:53;-0.50;99.90
15343;DHT22;7771;48.478;8.936;2023-03-01T01:44:21;-0.60;99.90
15343;DHT22;7771;48.478;8.936;2023-03-01T01:46:50;-0.60;99.90
15343;DHT22;7771;48.478;8.936;2023-03-01T01:49:19;-0.60;99.90
15343;DHT22;7771;48.478;8.936;2023-03-01T01:51:44;-0.60;99.90
15343;DHT22;7771;48.478;8.936;2023-03-01T01:54:19;-0.60;99.90
15343;DHT22;7771;48.478;8.936;2023-03-01T01:56:40;-0.60;99.90
15343;DHT22;7771;48.478;8.936;2023-03-01T01:59:07;-0.60;99.90
15343;DHT22;7771;48.478;8.936;2023-03-01T02:04:02;-0.60;99.90
15343;DHT22;7771;48.478;8.936;2023-03-01T02:06:34;-0.60;99.90
15343;DHT22;7771;48.478;8.936;2023-03-01T02:09:02;-0.60;99.90
15343;DHT22;7771;48.478;8.936;2023-03-01T02:13:55;-0.60;99.90
15343;DHT22;7771;48.478;8.936;2023-03-01T02:16:21;-0.50;99.90
15343;DHT22;7771;48.478;8.936;2023-03-01T02:18:49;-0.50;99.90
15343;DHT22;7771;48.478;8.936;2023-03-01T02:21:32;-0.50;99.90
15343;DHT22;7771;48.478;8.936;2023-03-01T02:23:58;-0.50;99.90
15343;DHT22;7771;48.478;8.936;2023-03-01T02:26:33;-0.40;99.90
15343;DHT22;7771;48.478;8.936;2023-03-01T02:28:56;-0.40;99.90
15343;DHT22;7771;48.478;8.936;2023-03-01T02:31:23;-0.40;99.90
15343;DHT22;7771;48.478;8.936;2023-03-01T02:33:55;-0.40;99.90
15343;DHT22;7771;48.478;8.936;2023-03-01T02:36:25;-0.40;99.90
15343;DHT22;7771;48.478;8.936;2023-03-01T02:38:52;-0.40;99.90
15343;DHT22;7771;48.478;8.936;2023-03-01T02:41:18;-0.30;99.90
15343;DHT22;7771;48.478;8.936;2023-03-01T02:43:45;-0.30;99.90
15343;DHT22;7771;48.478;8.936;2023-03-01T02:46:19;-0.30;99.90
15343;DHT22;7771;48.478;8.936;2023-03-01T02:52:30;-0.20;99.90
15343;DHT22;7771;48.478;8.936;2023-03-01T02:54:12;-0.10;99.90
15343;DHT22;7771;48.478;8.936;2023-03-01T02:56:35;-0.10;99.90
15343;DHT22;7771;48.478;8.936;2023-03-01T02:59:02;0.00;99.90
15343;DHT22;7771;48.478;8.936;2023-03-01T03:01:29;0.00;99.90
15343;DHT22;7771;48.478;8.936;2023-03-01T03:03:56;0.10;99.90
15343;DHT22;7771;48.478;8.936;2023-03-01T03:06:23;0.10;99.90
15343;DHT22;7771;48.478;8.936;2023-03-01T03:08:50;0.20;99.90
15343;DHT22;7771;48.478;8.936;2023-03-01T03:11:18;0.20;99.90
15343;DHT22;7771;48.478;8.936;2023-03-01T03:13:44;0.30;99.90
15343;DHT22;7771;48.478;8.936;2023-03-01T03:16:11;0.30;99.90
15343;DHT22;7771;48.478;8.936;2023-03-01T03:18:39;0.30;99.90
15343;DHT22;7771;48.478;8.936;2023-03-01T03:21:08;0.30;99.90
15343;DHT22;7771;48.478;8.936;2023-03-01T03:23:35;0.40;99.90
15343;DHT22;7771;48.478;8.936;2023-03-01T03:26:03;0.40;99.90
15343;DHT22;7771;48.478;8.936;2023-03-01T03:28:31;0.40;99.90
15343;DHT22;7771;48.478;8.936;2023-03-01T03:30:58;0.50;99.90
15343;DHT22;7771;48.478;8.936;2023-03-01T03:33:25;0.50;99.90
15343;DHT22;7771;48.478;8.936;2023-03-01T03:35:53;0.60;99.90
15343;DHT22;7771;48.478;8.936;2023-03-01T03:38:20;0.60;99.90
15343;DHT22;7771;48.478;8.936;2023-03-01T03:40:50;0.60;99.90
15343;DHT22;7771;48.478;8.936;2023-03-01T03:43:17;0.70;99.90
15343;DHT22;7771;48.478;8.936;2023-03-01T03:45:44;0.70;99.90
15343;DHT22;7771;48.478;8.936;2023-03-01T03:48:11;0.70;99.90
15343;DHT22;7771;48.478;8.936;2023-03-01T03:50:38;0.70;99.90
15343;DHT22;7771;48.478;8.936;2023-03-01T03:53:06;0.70;99.90
15343;DHT22;7771;48.478;8.936;2023-03-01T03:55:32;0.80;99.90
15343;DHT22;7771;48.478;8.936;2023-03-01T03:57:59;0.80;99.90
15343;DHT22;7771;48.478;8.936;2023-03-01T04:00:25;0.80;99.90
15343;DHT22;7771;48.478;8.936;2023-03-01T04:02:52;0.80;99.90
15343;DHT22;7771;48.478;8.936;2023-03-01T04:05:19;0.90;99.90
15343;DHT22;7771;48.478;8.936;2023-03-01T04:07:47;0.80;99.90
15343;DHT22;7771;48.478;8.936;2023-03-01T04:10:15;0.90;99.90
15343;DHT22;7771;48.478;8.936;2023-03-01T04:12:42;0.90;99.90
15343;DHT22;7771;48.478;8.936;2023-03-01T04:15:09;1.00;99.90
15343;DHT22;7771;48.478;8.936;2023-03-01T04:17:40;1.00;99.90
15343;DHT22;7771;48.478;8.936;2023-03-01T04:20:09;1.00;99.90
15343;DHT22;7771;48.478;8.936;2023-03-01T04:22:35;1.00;99.90
15343;DHT22;7771;48.478;8.936;2023-03-01T04:25:03;1.10;99.90
15343;DHT22;7771;48.478;8.936;2023-03-01T04:27:29;1.10;99.90
15343;DHT22;7771;48.478;8.936;2023-03-01T04:29:57;1.10;99.90
15343;DHT22;7771;48.478;8.936;2023-03-01T04:34:52;1.10;99.90
15343;DHT22;7771;48.478;8.936;2023-03-01T04:37:19;1.20;99.90
15343;DHT22;7771;48.478;8.936;2023-03-01T04:39:46;1.10;99.90
15343;DHT22;7771;48.478;8.936;2023-03-01T04:42:15;1.20;99.90
15343;DHT22;7771;48.478;8.936;2023-03-01T04:44:41;1.20;99.90
15343;DHT22;7771;48.478;8.936;2023-03-01T04:47:08;1.20;99.90
15343;DHT22;7771;48.478;8.936;2023-03-01T04:49:34;1.30;99.90
15343;DHT22;7771;48.478;8.936;2023-03-01T04:52:02;1.30;99.90
15343;DHT22;7771;48.478;8.936;2023-03-01T04:54:30;1.30;99.90
15343;DHT22;7771;48.478;8.936;2023-03-01T04:56:58;1.30;99.90
15343;DHT22;7771;48.478;8.936;2023-03-01T04:59:24;1.30;99.90
15343;DHT22;7771;48.478;8.936;2023-03-01T05:01:51;1.40;99.90
15343;DHT22;7771;48.478;8.936;2023-03-01T05:04:18;1.40;99.90
15343;DHT22;7771;48.478;8.936;2023-03-01T05:06:44;1.50;99.90
15343;DHT22;7771;48.478;8.936;2023-03-01T05:09:11;1.50;99.90
15343;DHT22;7771;48.478;8.936;2023-03-01T05:11:38;1.50;99.90
15343;DHT22;7771;48.478;8.936;2023-03-01T05:14:05;1.50;99.90
15343;DHT22;7771;48.478;8.936;2023-03-01T05:16:32;1.50;99.90
15343;DHT22;7771;48.478;8.936;2023-03-01T05:18:59;1.50;99.90
15343;DHT22;7771;48.478;8.936;2023-03-01T05:21:27;1.50;99.90
15343;DHT22;7771;48.478;8.936;2023-03-01T05:23:53;1.50;99.90
15343;DHT22;7771;48.478;8.936;2023-03-01T05:26:20;1.60;99.90
15343;DHT22;7771;48.478;8.936;2023-03-01T05:28:47;1.60;99.90
15343;DHT22;7771;48.478;8.936;2023-03-01T05:31:15;1.60;99.90
15343;DHT22;7771;48.478;8.936;2023-03-01T05:33:42;1.60;99.90
15343;DHT22;7771;48.478;8.936;2023-03-01T05:36:09;1.70;99.90
15343;DHT22;7771;48.478;8.936;2023-03-01T05:38:37;1.70;99.90
15343;DHT22;7771;48.478;8.936;2023-03-01T05:41:04;1.70;99.90
15343;DHT22;7771;48.478;8.936;2023-03-01T05:43:31;1.70;99.90
15343;DHT22;7771;48.478;8.936;2023-03-01T05:45:58;1.70;99.90
15343;DHT22;7771;48.478;8.936;2023-03-01T05:48:24;1.80;99.90
15343;DHT22;7771;48.478;8.936;2023-03-01T05:50:51;1.90;99.90
15343;DHT22;7771;48.478;8.936;2023-03-01T05:53:19;1.80;99.90
15343;DHT22;7771;48.478;8.936;2023-03-01T05:55:44;1.90;99.90
15343;DHT22;7771;48.478;8.936;2023-03-01T05:58:12;1.90;99.90
15343;DHT22;7771;48.478;8.936;2023-03-01T06:00:38;1.90;99.90
15343;DHT22;7771;48.478;8.936;2023-03-01T06:03:05;2.00;99.90
15343;DHT22;7771;48.478;8.936;2023-03-01T06:05:32;2.10;99.90
15343;DHT22;7771;48.478;8.936;2023-03-01T06:07:59;2.00;99.90
15343;DHT22;7771;48.478;8.936;2023-03-01T06:10:26;2.00;99.90
15343;DHT22;7771;48.478;8.936;2023-03-01T06:15:21;2.00;99.90
15343;DHT22;7771;48.478;8.936;2023-03-01T06:17:49;2.00;99.90
15343;DHT22;7771;48.478;8.936;2023-03-01T06:20:18;2.00;99.90
15343;DHT22;7771;48.478;8.936;2023-03-01T06:22:44;2.10;99.90
15343;DHT22;7771;48.478;8.936;2023-03-01T06:25:12;2.00;99.90
15343;DHT22;7771;48.478;8.936;2023-03-01T06:27:39;2.10;99.90
15343;DHT22;7771;48.478;8.936;2023-03-01T06:30:07;2.10;99.90
15343;DHT22;7771;48.478;8.936;2023-03-01T06:32:34;2.00;99.90
15343;DHT22;7771;48.478;8.936;2023-03-01T06:35:02;2.10;99.90
15343;DHT22;7771;48.478;8.936;2023-03-01T06:37:29;2.10;99.90
15343;DHT22;7771;48.478;8.936;2023-03-01T06:39:55;2.10;99.90
15343;DHT22;7771;48.478;8.936;2023-03-01T06:42:23;2.10;99.90
15343;DHT22;7771;48.478;8.936;2023-03-01T06:44:50;2.10;99.90
15343;DHT22;7771;48.478;8.936;2023-03-01T06:47:16;2.20;99.90
15343;DHT22;7771;48.478;8.936;2023-03-01T06:52:12;2.20;99.90
15343;DHT22;7771;48.478;8.936;2023-03-01T06:54:38;2.30;99.90
15343;DHT22;7771;48.478;8.936;2023-03-01T06:57:05;2.30;99.90
15343;DHT22;7771;48.478;8.936;2023-03-01T06:59:32;2.40;99.90
15343;DHT22;7771;48.478;8.936;2023-03-01T07:02:00;2.40;99.90
15343;DHT22;7771;48.478;8.936;2023-03-01T07:04:28;2.40;99.90
15343;DHT22;7771;48.478;8.936;2023-03-01T07:06:55;2.40;99.90
15343;DHT22;7771;48.478;8.936;2023-03-01T07:09:23;2.50;99.90
15343;DHT22;7771;48.478;8.936;2023-03-01T07:11:50;2.40;99.90
15343;DHT22;7771;48.478;8.936;2023-03-01T07:14:17;2.40;99.90
15343;DHT22;7771;48.478;8.936;2023-03-01T07:16:43;2.40;99.90
15343;DHT22;7771;48.478;8.936;2023-03-01T07:21:38;2.50;99.90
15343;DHT22;7771;48.478;8.936;2023-03-01T07:24:06;2.50;99.90
15343;DHT22;7771;48.478;8.936;2023-03-01T07:26:33;2.60;99.90
15343;DHT22;7771;48.478;8.936;2023-03-01T07:29:00;2.60;99.90
15343;DHT22;7771;48.478;8.936;2023-03-01T07:31:27;2.70;99.90
15343;DHT22;7771;48.478;8.936;2023-03-01T07:33:54;2.70;99.90
15343;DHT22;7771;48.478;8.936;2023-03-01T07:36:22;2.80;99.90
15343;DHT22;7771;48.478;8.936;2023-03-01T07:38:49;2.80;99.90
15343;DHT22;7771;48.478;8.936;2023-03-01T07:41:16;2.80;99.90
15343;DHT22;7771;48.478;8.936;2023-03-01T07:43:44;2.90;99.90
15343;DHT22;7771;48.478;8.936;2023-03-01T07:46:10;2.90;99.90
15343;DHT22;7771;48.478;8.936;2023-03-01T07:48:37;3.00;99.90
15343;DHT22;7771;48.478;8.936;2023-03-01T07:51:05;3.00;99.90
15343;DHT22;7771;48.478;8.936;2023-03-01T07:53:32;3.10;99.90
15343;DHT22;7771;48.478;8.936;2023-03-01T07:56:00;3.20;99.90
15343;DHT22;7771;48.478;8.936;2023-03-01T07:58:26;3.40;99.90
15343;DHT22;7771;48.478;8.936;2023-03-01T08:00:53;3.50;99.90
15343;DHT22;7771;48.478;8.936;2023-03-01T08:03:19;3.70;99.90
15343;DHT22;7771;48.478;8.936;2023-03-01T08:05:47;3.80;99.90
15343;DHT22;7771;48.478;8.936;2023-03-01T08:08:14;4.00;99.90
15343;DHT22;7771;48.478;8.936;2023-03-01T08:10:42;4.20;99.90
15343;DHT22;7771;48.478;8.936;2023-03-01T08:13:09;4.40;99.90
15343;DHT22;7771;48.478;8.936;2023-03-01T08:15:37;4.60;99.90
15343;DHT22;7771;48.478;8.936;2023-03-01T08:18:04;4.80;99.90
15343;DHT22;7771;48.478;8.936;2023-03-01T08:20:31;5.00;99.90
15343;DHT22;7771;48.478;8.936;2023-03-01T08:22:58;5.20;99.90
15343;DHT22;7771;48.478;8.936;2023-03-01T08:25:27;5.30;99.90
15343;DHT22;7771;48.478;8.936;2023-03-01T08:27:54;5.50;99.90
15343;DHT22;7771;48.478;8.936;2023-03-01T08:30:21;5.60;99.90
15343;DHT22;7771;48.478;8.936;2023-03-01T08:32:49;5.70;99.90
15343;DHT22;7771;48.478;8.936;2023-03-01T08:35:15;5.80;99.90
15343;DHT22;7771;48.478;8.936;2023-03-01T08:37:42;5.90;99.90
15343;DHT22;7771;48.478;8.936;2023-03-01T08:40:10;6.00;99.90
15343;DHT22;7771;48.478;8.936;2023-03-01T08:42:38;6.00;99.90
15343;DHT22;7771;48.478;8.936;2023-03-01T08:45:06;5.90;99.90
15343;DHT22;7771;48.478;8.936;2023-03-01T08:47:32;5.90;99.90
15343;DHT22;7771;48.478;8.936;2023-03-01T08:50:00;5.80;99.90
15343;DHT22;7771;48.478;8.936;2023-03-01T08:52:27;5.80;99.90
15343;DHT22;7771;48.478;8.936;2023-03-01T08:54:54;5.80;99.90
15343;DHT22;7771;48.478;8.936;2023-03-01T08:57:21;5.80;99.90
15343;DHT22;7771;48.478;8.936;2023-03-01T08:59:49;5.70;99.90
15343;DHT22;7771;48.478;8.936;2023-03-01T09:02:16;5.80;99.90
15343;DHT22;7771;48.478;8.936;2023-03-01T09:04:43;5.80;99.90
15343;DHT22;7771;48.478;8.936;2023-03-01T09:07:10;5.80;99.90
15343;DHT22;7771;48.478;8.936;2023-03-01T09:09:36;6.00;99.90
15343;DHT22;7771;48.478;8.936;2023-03-01T09:12:03;6.10;99.90
15343;DHT22;7771;48.478;8.936;2023-03-01T09:14:30;6.40;99.90
15343;DHT22;7771;48.478;8.936;2023-03-01T09:16:57;6.60;99.90
15343;DHT22;7771;48.478;8.936;2023-03-01T09:19:30;6.70;99.90
15343;DHT22;7771;48.478;8.936;2023-03-01T09:21:56;6.90;99.90
15343;DHT22;7771;48.478;8.936;2023-03-01T09:24:24;6.90;99.90
15343;DHT22;7771;48.478;8.936;2023-03-01T09:26:53;7.10;99.90
15343;DHT22;7771;48.478;8.936;2023-03-01T09:29:19;7.30;99.90
15343;DHT22;7771;48.478;8.936;2023-03-01T09:31:47;7.40;99.70
15343;DHT22;7771;48.478;8.936;2023-03-01T09:34:14;7.50;99.40
15343;DHT22;7771;48.478;8.936;2023-03-01T09:36:41;7.60;99.20
15343;DHT22;7771;48.478;8.936;2023-03-01T09:39:08;7.80;98.80
15343;DHT22;7771;48.478;8.936;2023-03-01T09:44:32;7.90;98.10
15343;DHT22;7771;48.478;8.936;2023-03-01T09:46:57;8.00;97.90
15343;DHT22;7771;48.478;8.936;2023-03-01T09:49:25;8.00;97.70
15343;DHT22;7771;48.478;8.936;2023-03-01T09:51:55;7.90;97.50
15343;DHT22;7771;48.478;8.936;2023-03-01T09:54:21;7.80;97.60
15343;DHT22;7771;48.478;8.936;2023-03-01T10:00:03;7.70;97.70
15343;DHT22;7771;48.478;8.936;2023-03-01T10:02:31;7.60;97.90
15343;DHT22;7771;48.478;8.936;2023-03-01T10:04:58;7.70;97.90
15343;DHT22;7771;48.478;8.936;2023-03-01T10:07:30;7.70;97.60
15343;DHT22;7771;48.478;8.936;2023-03-01T10:09:54;7.70;97.70
15343;DHT22;7771;48.478;8.936;2023-03-01T10:12:22;7.60;97.70
15343;DHT22;7771;48.478;8.936;2023-03-01T10:15:01;7.60;98.00
15343;DHT22;7771;48.478;8.936;2023-03-01T10:17:32;7.50;98.10
15343;DHT22;7771;48.478;8.936;2023-03-01T10:19:59;7.60;98.00
15343;DHT22;7771;48.478;8.936;2023-03-01T10:22:26;7.70;97.90
15343;DHT22;7771;48.478;8.936;2023-03-01T10:24:52;7.70;97.70
15343;DHT22;7771;48.478;8.936;2023-03-01T10:27:24;7.70;97.80
15343;DHT22;7771;48.478;8.936;2023-03-01T10:29:58;7.70;97.70
15343;DHT22;7771;48.478;8.936;2023-03-01T10:32:21;7.60;97.50
15343;DHT22;7771;48.478;8.936;2023-03-01T10:34:48;7.60;97.60
15343;DHT22;7771;48.478;8.936;2023-03-01T10:37:18;7.50;98.20
15343;DHT22;7771;48.478;8.936;2023-03-01T10:42:32;7.60;98.40
15343;DHT22;7771;48.478;8.936;2023-03-01T10:45:14;7.70;97.90
15343;DHT22;7771;48.478;8.936;2023-03-01T10:47:26;7.90;97.70
15343;DHT22;7771;48.478;8.936;2023-03-01T10:49:52;8.00;97.50
15343;DHT22;7771;48.478;8.936;2023-03-01T10:52:20;8.00;97.70
15343;DHT22;7771;48.478;8.936;2023-03-01T10:54:51;8.00;97.50
15343;DHT22;7771;48.478;8.936;2023-03-01T10:57:30;8.10;97.60
15343;DHT22;7771;48.478;8.936;2023-03-01T11:00:32;8.10;97.40
15343;DHT22;7771;48.478;8.936;2023-03-01T11:02:45;8.20;97.00
15343;DHT22;7771;48.478;8.936;2023-03-01T11:05:22;8.20;97.50
15343;DHT22;7771;48.478;8.936;2023-03-01T11:07:49;8.20;97.50
15343;DHT22;7771;48.478;8.936;2023-03-01T11:10:18;8.30;96.80
15343;DHT22;7771;48.478;8.936;2023-03-01T11:12:44;8.40;97.00
15343;DHT22;7771;48.478;8.936;2023-03-01T11:15:26;8.40;97.00
15343;DHT22;7771;48.478;8.936;2023-03-01T11:17:51;8.30;97.00
15343;DHT22;7771;48.478;8.936;2023-03-01T11:20:22;8.20;97.00
15343;DHT22;7771;48.478;8.936;2023-03-01T11:22:49;8.20;97.30
15343;DHT22;7771;48.478;8.936;2023-03-01T11:25:14;8.40;96.90
15343;DHT22;7771;48.478;8.936;2023-03-01T11:27:41;8.50;96.50
15343;DHT22;7771;48.478;8.936;2023-03-01T11:30:22;8.50;96.80
15343;DHT22;7771;48.478;8.936;2023-03-01T11:33:04;8.50;96.70
15343;DHT22;7771;48.478;8.936;2023-03-01T11:35:30;8.50;97.00
15343;DHT22;7771;48.478;8.936;2023-03-01T11:38:02;8.60;96.60
15343;DHT22;7771;48.478;8.936;2023-03-01T11:40:35;8.70;96.70
15343;DHT22;7771;48.478;8.936;2023-03-01T11:48:43;9.00;95.90
15343;DHT22;7771;48.478;8.936;2023-03-01T11:51:09;9.00;96.00
15343;DHT22;7771;48.478;8.936;2023-03-01T11:53:43;9.00;96.30
15343;DHT22;7771;48.478;8.936;2023-03-01T11:56:09;9.10;96.10
15343;DHT22;7771;48.478;8.936;2023-03-01T11:58:39;9.20;95.50
15343;DHT22;7771;48.478;8.936;2023-03-01T12:01:07;9.20;95.50
15343;DHT22;7771;48.478;8.936;2023-03-01T12:03:32;9.30;95.60
15343;DHT22;7771;48.478;8.936;2023-03-01T12:06:22;9.30;95.50
15343;DHT22;7771;48.478;8.936;2023-03-01T12:08:50;9.20;95.80
15343;DHT22;7771;48.478;8.936;2023-03-01T12:11:23;9.20;95.60
15343;DHT22;7771;48.478;8.936;2023-03-01T12:14:13;9.20;95.60
15343;DHT22;7771;48.478;8.936;2023-03-01T12:16:40;9.20;95.70
15343;DHT22;7771;48.478;8.936;2023-03-01T12:19:30;9.30;95.90
15343;DHT22;7771;48.478;8.936;2023-03-01T12:22:11;9.50;96.10
15343;DHT22;7771;48.478;8.936;2023-03-01T12:24:41;9.60;95.10
15343;DHT22;7771;48.478;8.936;2023-03-01T12:27:27;9.70;95.20
15343;DHT22;7771;48.478;8.936;2023-03-01T12:29:59;9.80;95.20
15343;DHT22;7771;48.478;8.936;2023-03-01T12:32:43;9.90;94.70
15343;DHT22;7771;48.478;8.936;2023-03-01T12:35:16;10.00;94.80
15343;DHT22;7771;48.478;8.936;2023-03-01T12:37:43;10.00;94.70
15343;DHT22;7771;48.478;8.936;2023-03-01T12:41:00;10.20;94.50
15343;DHT22;7771;48.478;8.936;2023-03-01T12:43:46;10.20;93.90
15343;DHT22;7771;48.478;8.936;2023-03-01T12:48:36;10.20;94.10
15343;DHT22;7771;48.478;8.936;2023-03-01T12:51:05;10.30;93.40
15343;DHT22;7771;48.478;8.936;2023-03-01T12:53:36;10.20;94.00
15343;DHT22;7771;48.478;8.936;2023-03-01T12:56:09;10.20;93.70
15343;DHT22;7771;48.478;8.936;2023-03-01T12:58:54;10.30;93.70
15343;DHT22;7771;48.478;8.936;2023-03-01T13:01:31;10.30;94.00
15343;DHT22;7771;48.478;8.936;2023-03-01T13:04:19;10.40;93.40
15343;DHT22;7771;48.478;8.936;2023-03-01T13:09:40;10.30;93.30
15343;DHT22;7771;48.478;8.936;2023-03-01T13:14:47;10.20;93.50
15343;DHT22;7771;48.478;8.936;2023-03-01T13:17:39;10.20;93.70
15343;DHT22;7771;48.478;8.936;2023-03-01T13:20:00;10.30;93.50
15343;DHT22;7771;48.478;8.936;2023-03-01T13:22:30;10.30;93.40
15343;DHT22;7771;48.478;8.936;2023-03-01T13:25:10;10.40;93.00
15343;DHT22;7771;48.478;8.936;2023-03-01T13:27:29;10.20;93.50
15343;DHT22;7771;48.478;8.936;2023-03-01T13:29:57;10.20;93.50
15343;DHT22;7771;48.478;8.936;2023-03-01T13:32:27;10.10;93.70
15343;DHT22;7771;48.478;8.936;2023-03-01T13:34:56;10.20;93.60
15343;DHT22;7771;48.478;8.936;2023-03-01T13:37:26;10.20;93.60
15343;DHT22;7771;48.478;8.936;2023-03-01T13:39:52;10.20;93.80
15343;DHT22;7771;48.478;8.936;2023-03-01T13:44:59;10.30;93.80
15343;DHT22;7771;48.478;8.936;2023-03-01T13:47:26;10.30;93.60
15343;DHT22;7771;48.478;8.936;2023-03-01T13:49:57;10.30;93.40
15343;DHT22;7771;48.478;8.936;2023-03-01T13:52:35;10.40;93.60
15343;DHT22;7771;48.478;8.936;2023-03-01T13:55:00;10.40;93.70
15343;DHT22;7771;48.478;8.936;2023-03-01T13:57:30;10.30;93.60
15343;DHT22;7771;48.478;8.936;2023-03-01T13:59:55;10.40;93.50
15343;DHT22;7771;48.478;8.936;2023-03-01T14:02:22;10.40;93.10
15343;DHT22;7771;48.478;8.936;2023-03-01T14:04:56;10.40;93.20
15343;DHT22;7771;48.478;8.936;2023-03-01T14:07:23;10.30;92.90
15343;DHT22;7771;48.478;8.936;2023-03-01T14:09:52;10.30;92.70
15343;DHT22;7771;48.478;8.936;2023-03-01T14:15:13;10.20;92.80
15343;DHT22;7771;48.478;8.936;2023-03-01T14:17:46;10.10;92.70
15343;DHT22;7771;48.478;8.936;2023-03-01T14:20:28;10.00;93.10
15343;DHT22;7771;48.478;8.936;2023-03-01T14:22:55;9.90;93.20
15343;DHT22;7771;48.478;8.936;2023-03-01T14:25:29;9.70;93.50
15343;DHT22;7771;48.478;8.936;2023-03-01T14:30:27;9.80;94.50
15343;DHT22;7771;48.478;8.936;2023-03-01T14:32:56;9.80;93.80
15343;DHT22;7771;48.478;8.936;2023-03-01T14:35:25;9.80;93.90
15343;DHT22;7771;48.478;8.936;2023-03-01T14:37:50;9.70;93.90
15343;DHT22;7771;48.478;8.936;2023-03-01T14:40:24;9.70;94.10
15343;DHT22;7771;48.478;8.936;2023-03-01T14:42:51;9.90;94.10
15343;DHT22;7771;48.478;8.936;2023-03-01T14:45:18;9.90;93.50
15343;DHT22;7771;48.478;8.936;2023-03-01T14:47:45;9.80;93.80
15343;DHT22;7771;48.478;8.936;2023-03-01T14:50:20;9.80;93.90
15343;DHT22;7771;48.478;8.936;2023-03-01T14:52:45;9.90;93.60
15343;DHT22;7771;48.478;8.936;2023-03-01T14:55:16;9.80;93.60
15343;DHT22;7771;48.478;8.936;2023-03-01T14:57:43;9.80;93.90
15343;DHT22;7771;48.478;8.936;2023-03-01T15:00:15;9.80;94.20
15343;DHT22;7771;48.478;8.936;2023-03-01T15:02:38;9.80;93.90
15343;DHT22;7771;48.478;8.936;2023-03-01T15:05:05;9.80;93.90
15343;DHT22;7771;48.478;8.936;2023-03-01T15:07:34;9.80;93.70
15343;DHT22;7771;48.478;8.936;2023-03-01T15:09:59;9.60;93.80
15343;DHT22;7771;48.478;8.936;2023-03-01T15:12:37;9.50;94.20
15343;DHT22;7771;48.478;8.936;2023-03-01T15:15:19;9.50;94.50
15343;DHT22;7771;48.478;8.936;2023-03-01T15:17:33;9.50;94.40
15343;DHT22;7771;48.478;8.936;2023-03-01T15:19:57;9.50;94.40
15343;DHT22;7771;48.478;8.936;2023-03-01T15:22:25;9.50;94.40
15343;DHT22;7771;48.478;8.936;2023-03-01T15:24:51;9.40;94.40
15343;DHT22;7771;48.478;8.936;2023-03-01T15:27:20;9.40;94.80
15343;DHT22;7771;48.478;8.936;2023-03-01T15:29:52;9.40;94.90
15343;DHT22;7771;48.478;8.936;2023-03-01T15:32:26;9.40;94.70
15343;DHT22;7771;48.478;8.936;2023-03-01T15:34:53;9.40;95.20
15343;DHT22;7771;48.478;8.936;2023-03-01T15:39:58;9.50;94.30
15343;DHT22;7771;48.478;8.936;2023-03-01T15:42:40;9.50;94.20
15343;DHT22;7771;48.478;8.936;2023-03-01T15:45:23;9.50;94.10
15343;DHT22;7771;48.478;8.936;2023-03-01T15:47:50;9.40;94.30
15343;DHT22;7771;48.478;8.936;2023-03-01T15:50:19;9.30;94.50
15343;DHT22;7771;48.478;8.936;2023-03-01T15:52:44;9.30;94.60
15343;DHT22;7771;48.478;8.936;2023-03-01T15:55:18;9.20;94.70
15343;DHT22;7771;48.478;8.936;2023-03-01T15:57:43;9.10;94.80
15343;DHT22;7771;48.478;8.936;2023-03-01T16:00:11;9.10;94.80
15343;DHT22;7771;48.478;8.936;2023-03-01T16:02:39;9.10;94.70
15343;DHT22;7771;48.478;8.936;2023-03-01T16:05:05;9.00;94.90
15343;DHT22;7771;48.478;8.936;2023-03-01T16:07:32;9.00;95.20
15343;DHT22;7771;48.478;8.936;2023-03-01T16:09:59;8.90;95.30
15343;DHT22;7771;48.478;8.936;2023-03-01T16:12:26;9.00;95.30
15343;DHT22;7771;48.478;8.936;2023-03-01T16:14:53;9.00;95.10
15343;DHT22;7771;48.478;8.936;2023-03-01T16:17:20;9.00;95.10
15343;DHT22;7771;48.478;8.936;2023-03-01T16:19:47;9.00;95.30
15343;DHT22;7771;48.478;8.936;2023-03-01T16:22:13;8.90;95.40
15343;DHT22;7771;48.478;8.936;2023-03-01T16:24:40;8.80;95.60
15343;DHT22;7771;48.478;8.936;2023-03-01T16:27:06;8.80;95.60
15343;DHT22;7771;48.478;8.936;2023-03-01T16:29:33;8.80;95.80
15343;DHT22;7771;48.478;8.936;2023-03-01T16:32:00;8.70;96.00
15343;DHT22;7771;48.478;8.936;2023-03-01T16:36:54;8.70;95.70
15343;DHT22;7771;48.478;8.936;2023-03-01T16:39:22;8.50;95.80
15343;DHT22;7771;48.478;8.936;2023-03-01T16:41:48;8.50;96.00
15343;DHT22;7771;48.478;8.936;2023-03-01T16:44:16;8.60;95.90
15343;DHT22;7771;48.478;8.936;2023-03-01T16:46:42;8.50;95.90
15343;DHT22;7771;48.478;8.936;2023-03-01T16:49:10;8.50;96.00
15343;DHT22;7771;48.478;8.936;2023-03-01T16:51:36;8.40;96.10
15343;DHT22;7771;48.478;8.936;2023-03-01T16:54:03;8.50;96.00
15343;DHT22;7771;48.478;8.936;2023-03-01T16:58:58;8.30;96.20
15343;DHT22;7771;48.478;8.936;2023-03-01T17:01:25;8.20;96.40
15343;DHT22;7771;48.478;8.936;2023-03-01T17:03:51;8.20;96.40
15343;DHT22;7771;48.478;8.936;2023-03-01T17:06:19;8.10;96.50